sensor_id;sensor_type;location;lat;lon;timestamp;P1;durP1;ratioP1;P2;durP2;ratioP2
16967;SDS011;64862;54.398;10.126;2023-02-07T00:08:02;29.55;;;12.90;;
16967;SDS011;64862;54.398;10.126;2023-02-07T00:18:06;26.27;;;13.30;;
16967;SDS011;64862;54.398;10.126;2023-02-07T00:28:10;27.48;;;13.50;;
16967;SDS011;64862;54.398;10.126;2023-02-07T00:38:14;26.05;;;13.95;;
16967;SDS011;64862;54.398;10.126;2023-02-07T00:48:16;26.52;;;13.85;;
16967;SDS011;64862;54.398;10.126;2023-02-07T00:58:20;26.63;;;13.75;;
16967;SDS011;64862;54.398;10.126;2023-02-07T01:08:23;23.02;;;12.82;;
16967;SDS011;64862;54.398;10.126;2023-02-07T01:18:27;26.92;;;13.18;;
16967;SDS011;64862;54.398;10.126;2023-02-07T01:28:30;27.20;;;13.40;;
16967;SDS011;64862;54.398;10.126;2023-02-07T01:38:34;23.73;;;12.38;;
16967;SDS011;64862;54.398;10.126;2023-02-07T01:48:36;23.67;;;12.45;;
16967;SDS011;64862;54.398;10.126;2023-02-07T01:58:40;23.15;;;12.05;;
16967;SDS011;64862;54.398;10.126;2023-02-07T02:08:44;22.23;;;11.77;;
16967;SDS011;64862;54.398;10.126;2023-02-07T02:18:50;21.42;;;11.73;;
16967;SDS011;64862;54.398;10.126;2023-02-07T02:29:06;24.15;;;12.73;;
16967;SDS011;64862;54.398;10.126;2023-02-07T02:39:39;23.92;;;11.68;;
16967;SDS011;64862;54.398;10.126;2023-02-07T02:49:47;25.67;;;12.90;;
16967;SDS011;64862;54.398;10.126;2023-02-07T03:00:02;26.60;;;12.07;;
16967;SDS011;64862;54.398;10.126;2023-02-07T03:10:16;20.80;;;11.93;;
16967;SDS011;64862;54.398;10.126;2023-02-07T03:20:30;22.05;;;12.02;;
16967;SDS011;64862;54.398;10.126;2023-02-07T03:30:37;21.25;;;11.82;;
16967;SDS011;64862;54.398;10.126;2023-02-07T03:40:44;21.15;;;12.60;;
16967;SDS011;64862;54.398;10.126;2023-02-07T03:50:49;20.73;;;12.23;;
16967;SDS011;64862;54.398;10.126;2023-02-07T04:00:53;21.15;;;11.40;;
16967;SDS011;64862;54.398;10.126;2023-02-07T04:10:56;23.17;;;11.90;;
16967;SDS011;64862;54.398;10.126;2023-02-07T04:21:00;20.90;;;11.73;;
16967;SDS011;64862;54.398;10.126;2023-02-07T04:31:03;21.67;;;11.13;;
16967;SDS011;64862;54.398;10.126;2023-02-07T04:41:07;18.52;;;10.85;;
16967;SDS011;64862;54.398;10.126;2023-02-07T04:51:09;23.30;;;11.88;;
16967;SDS011;64862;54.398;10.126;2023-02-07T05:01:14;24.63;;;11.15;;
16967;SDS011;64862;54.398;10.126;2023-02-07T05:11:16;19.73;;;10.68;;
16967;SDS011;64862;54.398;10.126;2023-02-07T05:21:20;19.40;;;10.73;;
16967;SDS011;64862;54.398;10.126;2023-02-07T05:31:22;18.58;;;9.98;;
16967;SDS011;64862;54.398;10.126;2023-02-07T05:41:47;19.00;;;10.07;;
16967;SDS011;64862;54.398;10.126;2023-02-07T05:51:50;18.58;;;10.20;;
16967;SDS011;64862;54.398;10.126;2023-02-07T06:01:53;19.63;;;10.38;;
16967;SDS011;64862;54.398;10.126;2023-02-07T06:11:56;20.92;;;12.15;;
16967;SDS011;64862;54.398;10.126;2023-02-07T06:22:01;20.52;;;11.63;;
16967;SDS011;64862;54.398;10.126;2023-02-07T06:32:04;21.67;;;10.27;;
16967;SDS011;64862;54.398;10.126;2023-02-07T06:42:08;15.50;;;9.15;;
16967;SDS011;64862;54.398;10.126;2023-02-07T06:52:10;18.48;;;9.85;;
16967;SDS011;64862;54.398;10.126;2023-02-07T07:02:14;19.98;;;9.95;;
16967;SDS011;64862;54.398;10.126;2023-02-07T07:12:16;17.98;;;9.35;;
16967;SDS011;64862;54.398;10.126;2023-02-07T07:22:22;24.42;;;10.40;;
16967;SDS011;64862;54.398;10.126;2023-02-07T07:32:24;19.83;;;10.55;;
16967;SDS011;64862;54.398;10.126;2023-02-07T07:42:28;23.15;;;10.70;;
16967;SDS011;64862;54.398;10.126;2023-02-07T07:52:49;20.58;;;11.82;;
16967;SDS011;64862;54.398;10.126;2023-02-07T08:02:52;27.65;;;12.80;;
16967;SDS011;64862;54.398;10.126;2023-02-07T08:12:55;19.83;;;11.45;;
16967;SDS011;64862;54.398;10.126;2023-02-07T08:23:00;23.50;;;11.90;;
16967;SDS011;64862;54.398;10.126;2023-02-07T08:33:05;18.08;;;9.40;;
16967;SDS011;64862;54.398;10.126;2023-02-07T08:43:11;14.90;;;8.70;;
16967;SDS011;64862;54.398;10.126;2023-02-07T08:53:13;15.38;;;8.95;;
16967;SDS011;64862;54.398;10.126;2023-02-07T09:03:18;16.88;;;10.07;;
16967;SDS011;64862;54.398;10.126;2023-02-07T09:13:23;19.08;;;11.15;;
16967;SDS011;64862;54.398;10.126;2023-02-07T09:23:26;19.02;;;9.65;;
16967;SDS011;64862;54.398;10.126;2023-02-07T09:33:29;14.90;;;9.00;;
16967;SDS011;64862;54.398;10.126;2023-02-07T09:43:34;12.88;;;8.38;;
16967;SDS011;64862;54.398;10.126;2023-02-07T09:53:41;14.32;;;8.48;;
16967;SDS011;64862;54.398;10.126;2023-02-07T10:03:50;13.27;;;7.90;;
16967;SDS011;64862;54.398;10.126;2023-02-07T10:14:10;12.73;;;7.60;;
16967;SDS011;64862;54.398;10.126;2023-02-07T10:24:32;13.68;;;7.28;;
16967;SDS011;64862;54.398;10.126;2023-02-07T10:34:55;9.60;;;6.57;;
16967;SDS011;64862;54.398;10.126;2023-02-07T10:45:02;9.13;;;5.63;;
16967;SDS011;64862;54.398;10.126;2023-02-07T11:15:37;10.55;;;6.60;;
16967;SDS011;64862;54.398;10.126;2023-02-07T11:25:48;9.65;;;6.45;;
16967;SDS011;64862;54.398;10.126;2023-02-07T11:36:11;12.17;;;7.27;;
16967;SDS011;64862;54.398;10.126;2023-02-07T11:46:28;13.75;;;7.95;;
16967;SDS011;64862;54.398;10.126;2023-02-07T11:56:35;13.88;;;7.90;;
16967;SDS011;64862;54.398;10.126;2023-02-07T12:06:42;12.68;;;8.40;;
16967;SDS011;64862;54.398;10.126;2023-02-07T12:16:48;14.60;;;7.70;;
16967;SDS011;64862;54.398;10.126;2023-02-07T12:26:57;15.00;;;7.75;;
16967;SDS011;64862;54.398;10.126;2023-02-07T12:37:04;11.00;;;6.75;;
16967;SDS011;64862;54.398;10.126;2023-02-07T12:47:17;11.60;;;6.57;;
16967;SDS011;64862;54.398;10.126;2023-02-07T12:57:30;11.10;;;5.88;;
16967;SDS011;64862;54.398;10.126;2023-02-07T13:07:43;19.15;;;10.02;;
16967;SDS011;64862;54.398;10.126;2023-02-07T13:17:53;11.07;;;7.10;;
16967;SDS011;64862;54.398;10.126;2023-02-07T13:28:02;9.98;;;6.00;;
16967;SDS011;64862;54.398;10.126;2023-02-07T13:38:15;12.98;;;6.05;;
16967;SDS011;64862;54.398;10.126;2023-02-07T13:48:31;10.82;;;6.40;;
16967;SDS011;64862;54.398;10.126;2023-02-07T13:58:50;11.10;;;6.95;;
16967;SDS011;64862;54.398;10.126;2023-02-07T14:09:15;13.43;;;7.30;;
16967;SDS011;64862;54.398;10.126;2023-02-07T14:30:14;12.27;;;7.38;;
16967;SDS011;64862;54.398;10.126;2023-02-07T14:40:19;12.98;;;7.25;;
16967;SDS011;64862;54.398;10.126;2023-02-07T14:50:32;11.52;;;7.20;;
16967;SDS011;64862;54.398;10.126;2023-02-07T15:00:36;10.75;;;6.95;;
16967;SDS011;64862;54.398;10.126;2023-02-07T15:10:50;18.27;;;8.27;;
16967;SDS011;64862;54.398;10.126;2023-02-07T15:20:55;12.32;;;7.20;;
16967;SDS011;64862;54.398;10.126;2023-02-07T15:31:02;11.85;;;6.80;;
16967;SDS011;64862;54.398;10.126;2023-02-07T15:41:05;12.18;;;6.97;;
16967;SDS011;64862;54.398;10.126;2023-02-07T15:51:09;10.75;;;6.78;;
16967;SDS011;64862;54.398;10.126;2023-02-07T16:01:14;19.58;;;10.30;;
16967;SDS011;64862;54.398;10.126;2023-02-07T16:11:34;12.18;;;7.43;;
16967;SDS011;64862;54.398;10.126;2023-02-07T16:21:37;13.15;;;7.43;;
16967;SDS011;64862;54.398;10.126;2023-02-07T16:31:43;16.05;;;8.73;;
16967;SDS011;64862;54.398;10.126;2023-02-07T16:41:46;18.55;;;10.13;;
16967;SDS011;64862;54.398;10.126;2023-02-07T16:51:51;17.15;;;9.50;;
16967;SDS011;64862;54.398;10.126;2023-02-07T17:01:54;18.95;;;9.68;;
16967;SDS011;64862;54.398;10.126;2023-02-07T17:11:57;16.25;;;9.50;;
16967;SDS011;64862;54.398;10.126;2023-02-07T17:22:00;16.25;;;9.55;;
16967;SDS011;64862;54.398;10.126;2023-02-07T17:32:03;16.70;;;9.82;;
16967;SDS011;64862;54.398;10.126;2023-02-07T17:42:08;16.88;;;9.75;;
16967;SDS011;64862;54.398;10.126;2023-02-07T17:52:12;18.35;;;10.57;;
16967;SDS011;64862;54.398;10.126;2023-02-07T18:02:14;25.25;;;13.38;;
16967;SDS011;64862;54.398;10.126;2023-02-07T18:12:18;16.88;;;10.00;;
16967;SDS011;64862;54.398;10.126;2023-02-07T18:22:20;19.65;;;10.15;;
16967;SDS011;64862;54.398;10.126;2023-02-07T18:32:24;15.90;;;9.40;;
16967;SDS011;64862;54.398;10.126;2023-02-07T18:42:26;17.92;;;10.57;;
16967;SDS011;64862;54.398;10.126;2023-02-07T18:52:30;16.52;;;9.20;;
16967;SDS011;64862;54.398;10.126;2023-02-07T19:02:32;16.65;;;9.73;;
16967;SDS011;64862;54.398;10.126;2023-02-07T19:12:36;19.75;;;10.45;;
16967;SDS011;64862;54.398;10.126;2023-02-07T19:22:39;21.50;;;11.20;;
16967;SDS011;64862;54.398;10.126;2023-02-07T19:32:43;19.95;;;10.70;;
16967;SDS011;64862;54.398;10.126;2023-02-07T19:42:45;22.15;;;12.30;;
16967;SDS011;64862;54.398;10.126;2023-02-07T19:52:49;52.28;;;25.75;;
16967;SDS011;64862;54.398;10.126;2023-02-07T20:02:51;28.92;;;15.13;;
16967;SDS011;64862;54.398;10.126;2023-02-07T20:12:54;29.58;;;15.38;;
16967;SDS011;64862;54.398;10.126;2023-02-07T20:22:57;30.92;;;15.93;;
16967;SDS011;64862;54.398;10.126;2023-02-07T20:33:01;29.67;;;16.48;;
16967;SDS011;64862;54.398;10.126;2023-02-07T20:43:03;32.20;;;16.35;;
16967;SDS011;64862;54.398;10.126;2023-02-07T20:53:06;29.73;;;16.65;;
16967;SDS011;64862;54.398;10.126;2023-02-07T21:03:09;31.27;;;17.77;;
16967;SDS011;64862;54.398;10.126;2023-02-07T21:13:12;35.03;;;18.52;;
16967;SDS011;64862;54.398;10.126;2023-02-07T21:23:14;33.78;;;18.20;;
16967;SDS011;64862;54.398;10.126;2023-02-07T21:33:19;34.97;;;17.95;;
16967;SDS011;64862;54.398;10.126;2023-02-07T21:43:21;33.10;;;17.33;;
16967;SDS011;64862;54.398;10.126;2023-02-07T21:53:25;31.33;;;16.48;;
16967;SDS011;64862;54.398;10.126;2023-02-07T22:03:27;32.10;;;17.30;;
16967;SDS011;64862;54.398;10.126;2023-02-07T22:13:31;30.33;;;16.48;;
16967;SDS011;64862;54.398;10.126;2023-02-07T22:23:33;28.15;;;15.60;;
16967;SDS011;64862;54.398;10.126;2023-02-07T22:33:37;32.00;;;15.90;;
16967;SDS011;64862;54.398;10.126;2023-02-07T22:43:39;34.03;;;17.38;;
16967;SDS011;64862;54.398;10.126;2023-02-07T22:53:43;35.42;;;17.88;;
16967;SDS011;64862;54.398;10.126;2023-02-07T23:03:45;32.20;;;17.58;;
16967;SDS011;64862;54.398;10.126;2023-02-07T23:13:50;40.72;;;19.77;;
16967;SDS011;64862;54.398;10.126;2023-02-07T23:23:53;37.33;;;19.20;;
16967;SDS011;64862;54.398;10.126;2023-02-07T23:33:58;35.72;;;19.00;;
16967;SDS011;64862;54.398;10.126;2023-02-07T23:44:01;36.22;;;17.77;;
16967;SDS011;64862;54.398;10.126;2023-02-07T23:54:05;35.92;;;17.73;;
